createdAt,value
2022-07-26T00:02:04.051Z,1.42
2022-07-26T00:04:32.175Z,1.50
2022-07-26T00:07:00.078Z,1.40
2022-07-26T00:09:27.956Z,1.42
2022-07-26T00:11:56.054Z,1.23
2022-07-26T00:14:23.819Z,1.30
2022-07-26T00:16:51.740Z,1.55
2022-07-26T00:19:19.796Z,1.40
2022-07-26T00:21:48.474Z,1.42
2022-07-26T00:24:16.142Z,1.58
2022-07-26T00:26:44.219Z,1.55
2022-07-26T00:29:12.176Z,1.42
2022-07-26T00:31:39.998Z,1.40
2022-07-26T00:34:08.108Z,1.40
2022-07-26T00:36:36.132Z,1.60
2022-07-26T00:39:09.637Z,1.75
2022-07-26T00:41:37.505Z,1.80
2022-07-26T00:44:05.608Z,1.52
2022-07-26T00:46:33.665Z,1.42
2022-07-26T00:49:01.531Z,1.45
2022-07-26T00:51:29.819Z,1.67
2022-07-26T00:53:57.883Z,1.58
2022-07-26T00:56:26.851Z,1.70
2022-07-26T00:58:54.494Z,1.90
2022-07-26T01:01:22.561Z,1.35
2022-07-26T01:03:54.331Z,1.30
2022-07-26T01:06:27.300Z,1.75
2022-07-26T01:08:55.811Z,1.52
2022-07-26T01:11:23.813Z,1.40
2022-07-26T01:13:51.927Z,1.67
2022-07-26T01:16:19.793Z,1.40
2022-07-26T01:18:47.995Z,1.50
2022-07-26T01:21:16.125Z,1.67
2022-07-26T01:23:44.475Z,1.62
2022-07-26T01:26:12.633Z,1.40
2022-07-26T01:28:41.781Z,1.40
2022-07-26T01:31:09.536Z,1.55
2022-07-26T01:33:37.691Z,1.73
2022-07-26T01:36:05.799Z,1.55
2022-07-26T01:38:33.518Z,1.30
2022-07-26T01:41:01.738Z,1.52
2022-07-26T01:43:29.919Z,1.30
2022-07-26T01:45:57.845Z,1.40
2022-07-26T01:48:25.814Z,1.60
2022-07-26T01:50:53.527Z,1.58
2022-07-26T01:53:21.306Z,1.77
2022-07-26T01:55:49.421Z,1.70
2022-07-26T01:58:17.262Z,1.90
2022-07-26T02:00:45.127Z,1.40
2022-07-26T02:03:13.220Z,1.40
2022-07-26T02:05:41.118Z,1.50
2022-07-26T02:08:15.170Z,1.50
2022-07-26T02:11:03.468Z,1.70
2022-07-26T02:13:35.731Z,1.50
2022-07-26T02:16:05.817Z,1.35
2022-07-26T02:18:34.644Z,1.40
2022-07-26T02:21:02.576Z,1.35
2022-07-26T02:23:30.766Z,1.52
2022-07-26T02:25:58.459Z,1.40
2022-07-26T02:28:26.543Z,1.60
2022-07-26T02:30:55.255Z,1.58
2022-07-26T02:33:24.643Z,1.50
2022-07-26T02:35:52.343Z,1.50
2022-07-26T02:38:20.385Z,1.62
2022-07-26T02:40:50.616Z,1.67
2022-07-26T02:43:18.288Z,1.80
2022-07-26T02:45:58.889Z,1.42
2022-07-26T02:48:32.905Z,2.42
2022-07-26T02:51:01.079Z,1.87
2022-07-26T02:53:33.634Z,1.87
2022-07-26T02:56:01.679Z,2.00
2022-07-26T02:58:29.345Z,1.55
2022-07-26T03:00:57.071Z,1.50
2022-07-26T03:03:25.328Z,1.58
2022-07-26T03:05:53.195Z,1.85
2022-07-26T03:08:21.229Z,1.52
2022-07-26T03:10:49.222Z,1.60
2022-07-26T03:13:16.928Z,1.70
2022-07-26T03:15:45.038Z,2.08
2022-07-26T03:18:13.117Z,1.58
2022-07-26T03:20:40.772Z,1.92
2022-07-26T03:23:08.450Z,1.52
2022-07-26T03:25:37.612Z,2.17
2022-07-26T03:28:05.762Z,1.90
2022-07-26T03:30:33.712Z,1.92
2022-07-26T03:33:01.837Z,2.35
2022-07-26T03:35:29.561Z,2.83
2022-07-26T03:37:57.226Z,3.00
2022-07-26T03:40:25.315Z,2.10
2022-07-26T03:42:52.974Z,1.90
2022-07-26T03:45:20.757Z,2.10
2022-07-26T03:47:49.018Z,1.80
2022-07-26T03:50:16.753Z,1.73
2022-07-26T03:52:44.563Z,1.65
2022-07-26T03:55:31.246Z,1.80
2022-07-26T03:57:59.207Z,1.90
2022-07-26T04:00:27.287Z,1.87
2022-07-26T04:02:55.567Z,2.00
2022-07-26T04:05:23.947Z,1.83
2022-07-26T04:10:22.918Z,2.12
2022-07-26T04:12:50.777Z,2.08
2022-07-26T04:15:19.304Z,2.75
2022-07-26T04:17:48.528Z,2.00
2022-07-26T04:20:16.492Z,2.37
2022-07-26T04:22:45.150Z,2.05
2022-07-26T04:25:13.307Z,1.80
2022-07-26T04:27:40.994Z,2.20
2022-07-26T04:30:14.482Z,2.05
2022-07-26T04:32:46.506Z,1.73
2022-07-26T04:35:15.505Z,2.20
2022-07-26T04:37:44.906Z,1.90
2022-07-26T04:40:17.270Z,1.90
2022-07-26T04:42:50.398Z,2.08
2022-07-26T04:45:19.327Z,2.00
2022-07-26T04:47:50.297Z,1.90
2022-07-26T04:50:20.086Z,2.58
2022-07-26T04:52:49.154Z,2.40
2022-07-26T04:55:17.285Z,2.00
2022-07-26T04:57:47.431Z,2.25
2022-07-26T05:00:22.839Z,2.10
2022-07-26T05:02:57.212Z,2.55
2022-07-26T05:05:27.036Z,2.70
2022-07-26T05:07:57.459Z,2.83
2022-07-26T05:10:31.691Z,2.55
2022-07-26T05:12:59.863Z,2.42
2022-07-26T05:15:35.447Z,2.60
2022-07-26T05:18:10.586Z,2.47
2022-07-26T05:20:41.250Z,2.25
2022-07-26T05:23:09.273Z,2.67
2022-07-26T05:25:37.929Z,2.30
2022-07-26T05:28:05.919Z,2.53
2022-07-26T05:30:34.084Z,2.40
2022-07-26T05:33:01.869Z,2.50
2022-07-26T05:35:29.490Z,2.40
2022-07-26T05:37:57.585Z,2.55
2022-07-26T05:40:25.472Z,2.83
2022-07-26T05:42:53.074Z,2.40
2022-07-26T05:45:21.141Z,2.65
2022-07-26T05:47:52.929Z,2.58
2022-07-26T05:50:20.895Z,2.75
2022-07-26T05:52:48.592Z,2.75
2022-07-26T05:55:16.223Z,2.78
2022-07-26T05:57:49.496Z,2.50
2022-07-26T06:00:17.694Z,2.40
2022-07-26T06:02:45.737Z,2.97
2022-07-26T06:05:15.855Z,2.80
2022-07-26T06:07:43.750Z,2.80
2022-07-26T06:10:12.099Z,2.75
2022-07-26T06:12:40.650Z,2.70
2022-07-26T06:15:14.794Z,2.92
2022-07-26T06:17:43.772Z,3.17
2022-07-26T06:20:11.895Z,2.80
2022-07-26T06:22:39.582Z,2.70
2022-07-26T06:25:08.024Z,2.90
2022-07-26T06:27:35.845Z,2.92
2022-07-26T06:30:04.654Z,2.85
2022-07-26T06:32:33.030Z,2.60
2022-07-26T06:35:00.906Z,3.60
2022-07-26T06:37:28.669Z,3.00
2022-07-26T06:39:56.644Z,2.67
2022-07-26T06:42:25.295Z,2.90
2022-07-26T06:44:52.904Z,2.90
2022-07-26T06:47:20.920Z,2.58
2022-07-26T06:49:48.544Z,2.50
2022-07-26T06:52:16.271Z,2.33
2022-07-26T06:54:44.823Z,2.22
2022-07-26T06:57:12.525Z,2.50
2022-07-26T06:59:40.403Z,2.60
2022-07-26T07:02:08.934Z,2.28
2022-07-26T07:04:36.699Z,3.12
2022-07-26T07:07:06.451Z,2.53
2022-07-26T07:09:36.360Z,2.30
2022-07-26T07:12:10.314Z,2.40
2022-07-26T07:14:39.476Z,2.12
2022-07-26T07:17:11.202Z,1.77
2022-07-26T07:19:42.206Z,2.05
2022-07-26T07:22:12.417Z,2.15
2022-07-26T07:24:41.151Z,2.28
2022-07-26T07:27:10.360Z,3.83
2022-07-26T07:29:41.338Z,3.25
2022-07-26T07:32:18.366Z,2.50
2022-07-26T07:34:49.979Z,2.22
2022-07-26T07:37:19.952Z,2.17
2022-07-26T07:39:50.578Z,2.08
2022-07-26T07:42:19.657Z,2.00
2022-07-26T07:44:48.178Z,2.90
2022-07-26T07:47:16.003Z,2.20
2022-07-26T07:49:44.253Z,1.65
2022-07-26T07:52:11.947Z,2.05
2022-07-26T07:54:39.636Z,1.98
2022-07-26T07:57:07.625Z,2.20
2022-07-26T07:59:38.509Z,2.53
2022-07-26T08:02:07.654Z,2.10
2022-07-26T08:04:35.948Z,1.85
2022-07-26T08:07:03.711Z,2.00
2022-07-26T08:09:33.810Z,1.90
2022-07-26T08:12:02.879Z,1.52
2022-07-26T08:14:30.580Z,1.83
2022-07-26T08:16:58.342Z,2.65
2022-07-26T08:19:26.485Z,1.98
2022-07-26T08:22:10.568Z,1.95
2022-07-26T08:24:38.800Z,2.05
2022-07-26T08:27:07.318Z,2.17
2022-07-26T08:29:34.981Z,2.00
2022-07-26T08:32:03.021Z,1.70
2022-07-26T08:34:30.872Z,1.75
2022-07-26T08:37:15.811Z,2.17
2022-07-26T08:39:47.187Z,2.10
2022-07-26T08:42:22.774Z,2.00
2022-07-26T08:44:52.035Z,1.83
2022-07-26T08:47:35.641Z,1.70
2022-07-26T08:50:08.789Z,1.87
2022-07-26T08:52:40.774Z,1.43
2022-07-26T08:55:10.011Z,1.80
2022-07-26T08:57:37.793Z,1.83
2022-07-26T09:00:31.779Z,1.87
2022-07-26T09:03:01.905Z,1.92
2022-07-26T09:08:22.163Z,2.10
2022-07-26T09:10:49.907Z,1.70
2022-07-26T09:13:18.226Z,1.77
2022-07-26T09:15:46.114Z,2.15
2022-07-26T09:18:29.629Z,1.98
2022-07-26T09:20:57.825Z,1.92
2022-07-26T09:23:25.488Z,2.67
2022-07-26T09:26:03.845Z,1.65
2022-07-26T09:28:32.324Z,1.95
2022-07-26T09:31:05.501Z,2.08
2022-07-26T09:33:48.542Z,1.80
2022-07-26T09:36:17.397Z,2.03
2022-07-26T09:38:48.125Z,1.80
2022-07-26T09:41:29.296Z,1.95
2022-07-26T09:44:00.662Z,1.90
2022-07-26T09:46:29.816Z,2.00
2022-07-26T09:49:16.292Z,2.03
2022-07-26T09:51:46.401Z,1.80
2022-07-26T09:54:29.404Z,1.98
2022-07-26T09:56:57.653Z,2.05
2022-07-26T09:59:27.265Z,1.95
2022-07-26T10:01:57.943Z,2.50
2022-07-26T10:04:27.543Z,2.17
2022-07-26T10:06:58.240Z,1.98
2022-07-26T10:09:33.130Z,2.97
2022-07-26T10:12:03.943Z,1.90
2022-07-26T10:14:33.104Z,2.03
2022-07-26T10:17:21.496Z,2.30
2022-07-26T10:19:58.897Z,2.12
2022-07-26T10:22:36.147Z,1.83
2022-07-26T10:25:19.947Z,1.60
2022-07-26T10:27:52.912Z,2.00
2022-07-26T10:30:23.190Z,1.83
2022-07-26T10:33:02.606Z,1.90
2022-07-26T10:35:41.029Z,2.10
2022-07-26T10:38:21.948Z,2.00
2022-07-26T10:41:00.434Z,1.95
2022-07-26T10:43:44.491Z,1.90
2022-07-26T10:46:18.800Z,2.10
2022-07-26T10:49:03.671Z,2.28
2022-07-26T10:51:37.631Z,1.90
2022-07-26T10:54:11.529Z,2.05
2022-07-26T10:56:40.751Z,2.10
2022-07-26T10:59:08.543Z,1.80
2022-07-26T11:01:41.275Z,1.98
2022-07-26T11:04:23.146Z,2.10
2022-07-26T11:06:51.876Z,1.80
2022-07-26T11:09:21.034Z,2.05
2022-07-26T11:11:49.476Z,2.10
2022-07-26T11:14:19.325Z,2.20
2022-07-26T11:16:50.061Z,2.00
2022-07-26T11:19:23.342Z,1.87
2022-07-26T11:21:58.640Z,2.00
2022-07-26T11:24:28.145Z,2.03
2022-07-26T11:26:57.069Z,1.80
2022-07-26T11:29:38.008Z,1.90
2022-07-26T11:32:18.115Z,2.15
2022-07-26T11:34:46.524Z,2.10
2022-07-26T11:37:15.125Z,1.90
2022-07-26T11:39:42.935Z,2.05
2022-07-26T11:42:15.158Z,2.00
2022-07-26T11:44:44.670Z,2.12
2022-07-26T11:47:20.643Z,2.05
2022-07-26T11:50:11.664Z,2.03
2022-07-26T11:52:40.634Z,2.10
2022-07-26T11:55:09.474Z,2.12
2022-07-26T11:57:37.421Z,1.90
2022-07-26T12:00:06.413Z,2.30
2022-07-26T12:02:38.996Z,2.10
2022-07-26T12:05:20.274Z,2.12
2022-07-26T12:07:56.284Z,2.50
2022-07-26T12:10:24.515Z,2.20
2022-07-26T12:13:07.348Z,2.45
2022-07-26T12:15:52.318Z,2.40
2022-07-26T12:18:28.692Z,2.30
2022-07-26T12:21:05.575Z,2.12
2022-07-26T12:23:42.804Z,2.47
2022-07-26T12:26:19.972Z,2.33
2022-07-26T12:28:47.710Z,2.87
2022-07-26T12:31:26.613Z,1.92
2022-07-26T12:33:54.697Z,1.90
2022-07-26T12:36:27.674Z,2.30
2022-07-26T12:39:00.744Z,2.28
2022-07-26T12:41:40.365Z,2.00
2022-07-26T12:44:11.953Z,2.10
2022-07-26T12:46:40.713Z,2.30
2022-07-26T12:49:08.695Z,2.20
2022-07-26T12:51:37.107Z,2.20
2022-07-26T12:54:06.578Z,2.37
2022-07-26T12:56:34.606Z,2.22
2022-07-26T12:59:02.401Z,2.62
2022-07-26T13:01:32.154Z,2.12
2022-07-26T13:06:27.714Z,2.28
2022-07-26T13:08:56.693Z,2.28
2022-07-26T13:11:25.040Z,2.43
2022-07-26T13:13:52.869Z,2.42
2022-07-26T13:16:20.926Z,2.62
2022-07-26T13:18:48.652Z,2.53
2022-07-26T13:21:16.446Z,2.30
2022-07-26T13:23:44.487Z,2.83
2022-07-26T13:26:12.402Z,2.10
2022-07-26T13:28:41.139Z,2.35
2022-07-26T13:31:09.974Z,2.45
2022-07-26T13:33:39.364Z,2.43
2022-07-26T13:36:07.108Z,2.45
2022-07-26T13:38:35.322Z,2.53
2022-07-26T13:41:04.033Z,2.37
2022-07-26T13:43:31.860Z,2.73
2022-07-26T13:46:00.279Z,2.40
2022-07-26T13:48:29.118Z,2.08
2022-07-26T13:50:57.672Z,2.70
2022-07-26T13:53:26.154Z,2.55
2022-07-26T13:55:53.758Z,2.72
2022-07-26T13:58:21.896Z,2.58
2022-07-26T14:00:49.967Z,2.70
2022-07-26T14:03:18.081Z,3.33
2022-07-26T14:05:45.834Z,2.60
2022-07-26T14:08:13.555Z,2.78
2022-07-26T14:10:41.662Z,2.50
2022-07-26T14:13:09.720Z,2.65
2022-07-26T14:15:37.533Z,3.97
2022-07-26T14:18:05.521Z,3.97
2022-07-26T14:20:33.162Z,4.62
2022-07-26T14:23:00.901Z,4.22
2022-07-26T14:25:28.900Z,4.30
2022-07-26T14:27:56.621Z,4.18
2022-07-26T14:30:24.284Z,3.65
2022-07-26T14:32:52.270Z,4.35
2022-07-26T14:35:20.049Z,4.53
2022-07-26T14:37:48.077Z,4.30
2022-07-26T14:40:17.773Z,3.72
2022-07-26T14:42:46.405Z,3.85
2022-07-26T14:45:14.927Z,3.55
2022-07-26T14:47:43.427Z,3.65
2022-07-26T14:50:13.529Z,3.70
2022-07-26T14:52:47.310Z,3.60
2022-07-26T14:55:20.418Z,3.90
2022-07-26T14:57:52.408Z,3.83
2022-07-26T15:00:20.432Z,4.57
2022-07-26T15:02:49.033Z,3.78
2022-07-26T15:05:17.718Z,4.00
2022-07-26T15:07:46.489Z,4.82
2022-07-26T15:10:15.235Z,4.75
2022-07-26T15:12:43.383Z,4.20
2022-07-26T15:15:11.894Z,4.12
2022-07-26T15:17:39.685Z,4.72
2022-07-26T15:20:07.894Z,4.20
2022-07-26T15:22:35.909Z,4.53
2022-07-26T15:25:04.179Z,4.45
2022-07-26T15:27:32.001Z,4.60
2022-07-26T15:30:04.192Z,3.80
2022-07-26T15:32:36.381Z,4.85
2022-07-26T15:35:07.314Z,4.40
2022-07-26T15:37:43.840Z,4.22
2022-07-26T15:42:42.749Z,4.20
2022-07-26T15:45:13.272Z,4.40
2022-07-26T15:48:05.704Z,4.47
2022-07-26T15:50:30.297Z,4.57
2022-07-26T15:52:57.992Z,4.50
2022-07-26T15:55:25.876Z,4.57
2022-07-26T15:57:54.941Z,4.65
2022-07-26T16:00:22.692Z,4.53
2022-07-26T16:02:50.933Z,5.00
2022-07-26T16:05:19.069Z,4.57
2022-07-26T16:07:49.896Z,4.80
2022-07-26T16:10:17.955Z,4.47
2022-07-26T16:12:45.847Z,5.43
2022-07-26T16:15:13.518Z,4.70
2022-07-26T16:17:41.683Z,4.85
2022-07-26T16:20:09.912Z,3.92
2022-07-26T16:22:41.145Z,4.25
2022-07-26T16:25:10.166Z,4.07
2022-07-26T16:27:37.914Z,4.43
2022-07-26T16:30:06.103Z,4.10
2022-07-26T16:32:34.249Z,3.72
2022-07-26T16:35:01.954Z,4.12
2022-07-26T16:37:29.659Z,4.30
2022-07-26T16:39:57.837Z,4.00
2022-07-26T16:42:25.817Z,4.07
2022-07-26T16:44:53.587Z,3.87
2022-07-26T16:47:21.560Z,4.12
2022-07-26T16:49:49.425Z,4.07
2022-07-26T16:52:17.217Z,4.55
2022-07-26T16:54:45.256Z,4.37
2022-07-26T16:57:13.035Z,4.00
2022-07-26T16:59:40.700Z,3.62
2022-07-26T17:02:09.179Z,4.45
2022-07-26T17:04:37.093Z,4.20
2022-07-26T17:07:24.378Z,4.10
2022-07-26T17:09:53.965Z,4.03
2022-07-26T17:12:23.270Z,4.40
2022-07-26T17:14:51.735Z,4.00
2022-07-26T17:17:19.816Z,3.53
2022-07-26T17:19:47.715Z,4.45
2022-07-26T17:22:15.988Z,4.05
2022-07-26T17:24:44.288Z,3.87
2022-07-26T17:27:11.991Z,4.00
2022-07-26T17:29:39.849Z,4.00
2022-07-26T17:32:08.778Z,3.90
2022-07-26T17:34:37.261Z,3.60
2022-07-26T17:37:07.057Z,3.60
2022-07-26T17:39:52.461Z,3.70
2022-07-26T17:42:22.163Z,3.60
2022-07-26T17:44:50.815Z,3.90
2022-07-26T17:47:29.323Z,3.55
2022-07-26T17:50:13.960Z,3.90
2022-07-26T17:52:48.513Z,4.05
2022-07-26T17:55:18.679Z,3.40
2022-07-26T17:57:49.768Z,3.90
2022-07-26T18:00:19.970Z,3.50
2022-07-26T18:02:48.583Z,3.40
2022-07-26T18:05:16.749Z,3.85
2022-07-26T18:07:44.553Z,3.65
2022-07-26T18:10:14.457Z,3.67
2022-07-26T18:12:42.280Z,3.50
2022-07-26T18:15:10.396Z,3.47
2022-07-26T18:17:38.873Z,3.65
2022-07-26T18:20:08.011Z,4.35
2022-07-26T18:22:35.899Z,4.43
2022-07-26T18:25:05.116Z,4.12
2022-07-26T18:27:33.619Z,4.30
2022-07-26T18:30:01.404Z,4.47
2022-07-26T18:32:30.549Z,4.78
2022-07-26T18:34:58.474Z,4.18
2022-07-26T18:37:26.245Z,3.83
2022-07-26T18:39:57.916Z,4.40
2022-07-26T18:42:27.190Z,4.03
2022-07-26T18:44:55.220Z,4.00
2022-07-26T18:47:23.153Z,3.85
2022-07-26T18:49:51.429Z,3.80
2022-07-26T18:52:28.576Z,3.58
2022-07-26T18:55:07.192Z,3.80
2022-07-26T18:57:36.834Z,4.10
2022-07-26T19:00:14.497Z,4.15
2022-07-26T19:02:43.414Z,4.05
2022-07-26T19:05:11.744Z,3.92
2022-07-26T19:07:40.317Z,3.55
2022-07-26T19:10:10.288Z,3.30
2022-07-26T19:12:37.966Z,3.13
2022-07-26T19:15:07.382Z,2.90
2022-07-26T19:17:38.232Z,3.12
2022-07-26T19:20:07.603Z,3.35
2022-07-26T19:22:36.046Z,3.47
2022-07-26T19:25:06.023Z,3.42
2022-07-26T19:27:33.743Z,3.30
2022-07-26T19:30:01.574Z,2.78
2022-07-26T19:32:33.630Z,3.35
2022-07-26T19:35:02.137Z,3.67
2022-07-26T19:37:30.315Z,3.22
2022-07-26T19:40:03.094Z,3.42
2022-07-26T19:42:32.445Z,3.15
2022-07-26T19:45:00.614Z,3.15
2022-07-26T19:47:29.932Z,3.00
2022-07-26T19:49:58.789Z,3.00
2022-07-26T19:52:26.560Z,3.05
2022-07-26T19:54:54.521Z,3.05
2022-07-26T19:57:22.844Z,3.40
2022-07-26T19:59:50.770Z,3.20
2022-07-26T20:02:18.603Z,3.00
2022-07-26T20:04:46.688Z,3.00
2022-07-26T20:07:19.400Z,2.97
2022-07-26T20:09:49.565Z,3.37
2022-07-26T20:12:17.993Z,3.08
2022-07-26T20:14:46.005Z,3.20
2022-07-26T20:17:14.019Z,3.62
2022-07-26T20:19:41.786Z,3.75
2022-07-26T20:22:09.556Z,3.30
2022-07-26T20:24:38.338Z,3.67
2022-07-26T20:27:06.914Z,3.42
2022-07-26T20:29:35.682Z,3.72
2022-07-26T20:32:04.033Z,3.50
2022-07-26T20:34:31.703Z,3.12
2022-07-26T20:36:59.436Z,3.30
2022-07-26T20:39:27.939Z,3.90
2022-07-26T20:41:55.982Z,3.83
2022-07-26T20:44:28.113Z,4.07
2022-07-26T20:46:56.653Z,4.12
2022-07-26T20:49:27.155Z,3.92
2022-07-26T20:51:54.929Z,3.70
2022-07-26T20:54:22.865Z,3.75
2022-07-26T20:56:50.687Z,3.85
2022-07-26T20:59:18.385Z,3.92
2022-07-26T21:01:46.537Z,4.10
2022-07-26T21:04:14.342Z,3.95
2022-07-26T21:06:42.290Z,4.10
2022-07-26T21:09:10.683Z,4.50
2022-07-26T21:11:39.037Z,4.00
2022-07-26T21:14:06.938Z,4.30
2022-07-26T21:16:36.026Z,3.87
2022-07-26T21:19:04.751Z,4.05
2022-07-26T21:21:34.230Z,4.40
2022-07-26T21:24:02.586Z,5.05
2022-07-26T21:26:30.535Z,4.65
2022-07-26T21:28:58.269Z,4.47
2022-07-26T21:31:26.771Z,4.47
2022-07-26T21:33:54.459Z,5.07
2022-07-26T21:36:22.223Z,4.97
2022-07-26T21:38:50.259Z,4.40
2022-07-26T21:41:17.881Z,4.65
2022-07-26T21:43:45.590Z,4.57
2022-07-26T21:46:14.065Z,4.95
2022-07-26T21:48:42.052Z,4.93
2022-07-26T21:51:09.753Z,5.12
2022-07-26T21:53:37.914Z,5.43
2022-07-26T21:56:05.731Z,6.10
2022-07-26T21:58:36.556Z,5.50
2022-07-26T22:01:07.386Z,5.85
2022-07-26T22:06:05.354Z,5.97
2022-07-26T22:08:33.315Z,5.90
2022-07-26T22:11:01.573Z,5.45
2022-07-26T22:13:29.255Z,5.70
2022-07-26T22:15:57.004Z,6.37
2022-07-26T22:18:25.295Z,6.70
2022-07-26T22:20:53.424Z,7.05
2022-07-26T22:23:23.117Z,6.62
2022-07-26T22:25:51.048Z,6.32
2022-07-26T22:28:18.985Z,6.72
2022-07-26T22:30:46.762Z,6.03
2022-07-26T22:33:14.973Z,6.28
2022-07-26T22:35:42.644Z,6.03
2022-07-26T22:38:11.447Z,6.15
2022-07-26T22:40:40.934Z,6.50
2022-07-26T22:43:09.839Z,6.12
2022-07-26T22:45:38.375Z,6.47
2022-07-26T22:48:07.270Z,6.18
2022-07-26T22:50:35.170Z,5.95
2022-07-26T22:53:03.208Z,6.00
2022-07-26T22:55:31.368Z,5.93
2022-07-26T22:57:59.694Z,5.60
2022-07-26T23:00:27.763Z,6.37
2022-07-26T23:02:55.884Z,6.60
2022-07-26T23:05:27.626Z,6.03
2022-07-26T23:08:36.326Z,5.65
2022-07-26T23:10:59.543Z,5.97
2022-07-26T23:13:27.472Z,5.60
2022-07-26T23:16:00.258Z,5.53
2022-07-26T23:18:30.361Z,6.00
2022-07-26T23:20:58.981Z,5.65
2022-07-26T23:23:29.409Z,5.97
2022-07-26T23:25:59.509Z,5.47
2022-07-26T23:28:35.898Z,5.50
2022-07-26T23:31:11.222Z,5.20
2022-07-26T23:33:51.414Z,5.45
2022-07-26T23:36:26.638Z,5.45
2022-07-26T23:38:56.066Z,5.15
2022-07-26T23:41:24.775Z,6.05
2022-07-26T23:43:53.076Z,5.85
2022-07-26T23:46:20.910Z,5.93
2022-07-26T23:48:49.377Z,5.70
2022-07-26T23:51:17.662Z,4.85
2022-07-26T23:53:45.741Z,5.70
2022-07-26T23:56:14.052Z,5.78
2022-07-26T23:58:42.033Z,5.40
